createdAt,value
2022-11-17T00:02:19.993Z,15.70
2022-11-17T00:05:08.109Z,15.70
2022-11-17T00:07:55.777Z,15.50
2022-11-17T00:10:43.454Z,15.40
2022-11-17T00:13:50.647Z,14.90
2022-11-17T00:16:38.332Z,15.10
2022-11-17T00:19:44.608Z,14.80
2022-11-17T00:22:32.593Z,15.20
2022-11-17T00:25:20.562Z,15.30
2022-11-17T00:28:08.003Z,15.10
2022-11-17T00:31:14.562Z,15.10
2022-11-17T00:34:04.894Z,15.20
2022-11-17T00:36:55.616Z,15.20
2022-11-17T00:39:43.393Z,15.10
2022-11-17T00:42:30.972Z,15.50
2022-11-17T00:45:18.417Z,15.50
2022-11-17T00:48:06.975Z,15.50
2022-11-17T00:50:54.723Z,15.40
2022-11-17T00:53:42.654Z,15.20
2022-11-17T00:56:30.218Z,15.40
2022-11-17T00:59:17.801Z,15.30
2022-11-17T01:02:05.387Z,15.20
2022-11-17T01:04:53.064Z,15.10
2022-11-17T01:07:40.618Z,15.40
2022-11-17T01:10:28.729Z,15.30
2022-11-17T01:13:18.134Z,15.30
2022-11-17T01:16:16.493Z,15.30
2022-11-17T01:19:04.373Z,15.40
2022-11-17T01:21:55.470Z,15.30
2022-11-17T01:24:43.127Z,15.30
2022-11-17T01:27:30.823Z,15.30
2022-11-17T01:30:18.817Z,15.30
2022-11-17T01:33:06.242Z,14.50
2022-11-17T01:35:53.923Z,14.80
2022-11-17T01:38:41.857Z,14.60
2022-11-17T01:41:29.701Z,14.70
2022-11-17T01:44:42.177Z,14.90
2022-11-17T01:47:44.921Z,15.00
2022-11-17T01:50:47.346Z,15.00
2022-11-17T01:53:35.567Z,14.70
2022-11-17T01:56:33.528Z,15.00
2022-11-17T01:59:49.373Z,14.80
2022-11-17T02:02:41.129Z,14.80
2022-11-17T02:06:12.104Z,14.70
2022-11-17T02:09:04.005Z,14.80
2022-11-17T02:11:52.047Z,15.00
2022-11-17T02:14:40.553Z,15.00
2022-11-17T02:17:42.497Z,15.10
2022-11-17T02:21:23.133Z,14.90
2022-11-17T02:24:52.856Z,15.00
2022-11-17T02:28:17.537Z,14.90
2022-11-17T02:31:39.776Z,15.00
2022-11-17T02:34:52.276Z,14.70
2022-11-17T02:38:13.776Z,14.90
2022-11-17T02:42:04.101Z,14.90
2022-11-17T02:45:03.340Z,14.90
2022-11-17T02:47:58.190Z,14.80
2022-11-17T02:50:49.666Z,14.80
2022-11-17T02:53:39.777Z,14.90
2022-11-17T02:56:30.255Z,14.90
2022-11-17T02:59:25.383Z,14.70
2022-11-17T03:02:28.896Z,14.70
2022-11-17T03:05:48.419Z,14.70
2022-11-17T03:09:20.678Z,14.90
2022-11-17T03:13:01.722Z,14.90
2022-11-17T03:16:01.454Z,14.90
2022-11-17T03:19:19.312Z,14.90
2022-11-17T03:22:23.809Z,14.60
2022-11-17T03:25:18.977Z,14.70
2022-11-17T03:28:11.309Z,14.80
2022-11-17T03:31:01.270Z,14.80
2022-11-17T03:33:50.915Z,14.80
2022-11-17T03:36:45.465Z,14.90
2022-11-17T03:39:43.214Z,15.00
2022-11-17T03:42:37.311Z,14.90
2022-11-17T03:45:34.370Z,14.90
2022-11-17T03:48:47.317Z,14.70
2022-11-17T03:51:34.827Z,14.80
2022-11-17T03:54:23.246Z,14.80
2022-11-17T03:57:49.679Z,14.80
2022-11-17T04:00:41.088Z,14.80
2022-11-17T04:03:35.811Z,14.70
2022-11-17T04:06:23.786Z,14.80
2022-11-17T04:09:11.934Z,14.70
2022-11-17T04:12:18.160Z,14.70
2022-11-17T04:15:25.734Z,14.80
2022-11-17T04:18:14.021Z,14.80
2022-11-17T04:21:01.565Z,14.40
2022-11-17T04:23:49.153Z,14.60
2022-11-17T04:26:55.281Z,14.70
2022-11-17T04:29:42.769Z,14.70
2022-11-17T04:32:30.189Z,14.70
2022-11-17T04:35:18.030Z,14.60
2022-11-17T04:38:05.497Z,14.70
2022-11-17T04:41:12.238Z,14.80
2022-11-17T04:44:01.016Z,14.70
2022-11-17T04:46:48.505Z,14.70
2022-11-17T04:49:36.225Z,14.70
2022-11-17T04:52:28.474Z,14.70
2022-11-17T04:55:17.802Z,14.80
2022-11-17T04:58:05.464Z,14.90
2022-11-17T05:00:52.997Z,14.90
2022-11-17T05:03:49.224Z,14.80
2022-11-17T05:06:39.642Z,14.90
2022-11-17T05:09:27.285Z,14.80
2022-11-17T05:12:33.521Z,14.60
2022-11-17T05:15:41.043Z,14.00
2022-11-17T05:18:28.562Z,14.40
2022-11-17T05:21:16.514Z,14.50
2022-11-17T05:24:05.373Z,14.70
2022-11-17T05:26:54.201Z,14.80
2022-11-17T05:29:42.344Z,14.80
2022-11-17T05:32:30.034Z,14.70
2022-11-17T05:35:17.451Z,14.80
2022-11-17T05:38:05.055Z,14.80
2022-11-17T05:40:52.736Z,14.70
2022-11-17T05:43:40.950Z,14.70
2022-11-17T05:46:29.064Z,14.80
2022-11-17T05:49:16.587Z,14.70
2022-11-17T05:52:04.197Z,14.80
2022-11-17T05:54:51.780Z,14.80
2022-11-17T05:57:40.103Z,14.60
2022-11-17T06:00:31.761Z,14.60
2022-11-17T06:03:33.898Z,14.70
2022-11-17T06:06:22.836Z,14.60
2022-11-17T06:09:10.979Z,14.50
2022-11-17T06:12:02.594Z,14.70
2022-11-17T06:14:53.405Z,14.40
2022-11-17T06:18:03.051Z,14.20
2022-11-17T06:20:54.116Z,14.40
2022-11-17T06:23:44.451Z,14.50
2022-11-17T06:26:32.302Z,14.70
2022-11-17T06:29:20.259Z,14.50
2022-11-17T06:32:07.816Z,14.50
2022-11-17T06:35:00.420Z,14.60
2022-11-17T06:37:48.247Z,14.20
2022-11-17T06:40:35.920Z,14.40
2022-11-17T06:43:23.472Z,14.30
2022-11-17T06:46:10.977Z,14.20
2022-11-17T06:48:58.483Z,14.40
2022-11-17T06:51:46.182Z,14.40
2022-11-17T06:54:33.883Z,14.30
2022-11-17T06:57:21.560Z,14.50
2022-11-17T07:00:10.509Z,14.20
2022-11-17T07:03:07.401Z,14.40
2022-11-17T07:05:54.994Z,14.10
2022-11-17T07:08:42.849Z,14.40
2022-11-17T07:11:30.528Z,14.10
2022-11-17T07:14:19.892Z,14.40
2022-11-17T07:17:08.423Z,14.80
2022-11-17T07:19:56.114Z,14.30
2022-11-17T07:22:44.155Z,14.50
2022-11-17T07:25:31.954Z,14.20
2022-11-17T07:28:19.674Z,14.80
2022-11-17T07:31:09.558Z,14.40
2022-11-17T07:33:57.415Z,14.90
2022-11-17T07:36:45.196Z,15.00
2022-11-17T07:39:32.678Z,14.90
2022-11-17T07:42:20.281Z,14.70
2022-11-17T07:45:10.076Z,14.70
2022-11-17T07:48:03.072Z,14.70
2022-11-17T07:50:50.829Z,14.70
2022-11-17T07:53:38.435Z,14.30
2022-11-17T07:56:26.039Z,14.30
2022-11-17T07:59:18.521Z,14.70
2022-11-17T08:02:10.853Z,15.00
2022-11-17T08:04:58.522Z,14.30
2022-11-17T08:07:55.153Z,14.30
2022-11-17T08:10:46.028Z,14.60
2022-11-17T08:13:34.888Z,14.60
2022-11-17T08:16:22.677Z,14.30
2022-11-17T08:19:12.482Z,14.20
2022-11-17T08:22:00.223Z,13.90
2022-11-17T08:24:47.966Z,14.00
2022-11-17T08:27:35.408Z,14.10
2022-11-17T08:30:24.637Z,14.30
2022-11-17T08:33:12.132Z,14.20
2022-11-17T08:36:03.560Z,14.50
2022-11-17T08:38:51.797Z,14.90
2022-11-17T08:41:39.463Z,15.10
2022-11-17T08:44:27.148Z,15.40
2022-11-17T08:47:14.737Z,15.20
2022-11-17T08:50:02.828Z,15.00
2022-11-17T08:52:52.762Z,14.90
2022-11-17T08:55:41.496Z,15.20
2022-11-17T08:58:29.394Z,15.00
2022-11-17T09:01:18.336Z,15.00
2022-11-17T09:04:06.273Z,15.00
2022-11-17T09:06:54.207Z,14.80
2022-11-17T09:09:42.579Z,15.20
2022-11-17T09:12:30.340Z,15.10
2022-11-17T09:15:18.330Z,15.60
2022-11-17T09:18:06.117Z,15.70
2022-11-17T09:21:02.972Z,15.90
2022-11-17T09:23:50.663Z,16.00
2022-11-17T09:26:41.956Z,16.20
2022-11-17T09:29:32.327Z,16.20
2022-11-17T09:32:20.858Z,16.20
2022-11-17T09:35:09.564Z,16.20
2022-11-17T09:38:01.861Z,16.50
2022-11-17T09:40:49.658Z,16.30
2022-11-17T09:44:19.480Z,16.40
2022-11-17T09:47:31.954Z,16.40
2022-11-17T09:50:38.898Z,16.40
2022-11-17T09:53:56.763Z,16.20
2022-11-17T09:56:47.378Z,16.30
2022-11-17T09:59:37.223Z,16.20
2022-11-17T10:02:25.435Z,16.40
2022-11-17T10:05:31.466Z,16.30
2022-11-17T10:08:29.635Z,16.30
2022-11-17T10:11:34.018Z,16.30
2022-11-17T10:14:23.205Z,16.40
2022-11-17T10:17:12.950Z,16.30
2022-11-17T10:20:00.538Z,16.40
2022-11-17T10:22:50.192Z,16.40
2022-11-17T10:25:42.973Z,15.80
2022-11-17T10:28:33.589Z,15.60
2022-11-17T10:31:21.313Z,15.50
2022-11-17T10:34:41.387Z,15.70
2022-11-17T10:37:31.023Z,15.40
2022-11-17T10:40:25.638Z,15.00
2022-11-17T10:43:13.652Z,15.10
2022-11-17T10:46:16.834Z,15.00
2022-11-17T10:49:24.053Z,15.40
2022-11-17T10:52:23.369Z,15.80
2022-11-17T10:55:34.394Z,16.40
2022-11-17T10:58:32.206Z,16.80
2022-11-17T11:01:32.837Z,17.00
2022-11-17T11:04:36.143Z,17.30
2022-11-17T11:07:24.770Z,17.60
2022-11-17T11:10:35.469Z,17.50
2022-11-17T11:14:23.439Z,17.60
2022-11-17T11:17:17.417Z,17.90
2022-11-17T11:20:08.108Z,17.50
2022-11-17T11:23:30.494Z,17.90
2022-11-17T11:26:49.750Z,18.00
2022-11-17T11:29:51.158Z,17.70
2022-11-17T11:32:55.803Z,18.00
2022-11-17T11:36:11.503Z,18.40
2022-11-17T11:39:47.050Z,18.30
2022-11-17T11:43:26.993Z,18.50
2022-11-17T11:46:40.191Z,18.10
2022-11-17T11:49:54.037Z,18.20
2022-11-17T11:52:50.831Z,18.30
2022-11-17T11:55:42.345Z,18.60
2022-11-17T11:58:30.043Z,18.40
2022-11-17T12:01:22.747Z,18.20
2022-11-17T12:04:44.129Z,18.30
2022-11-17T12:08:14.632Z,17.80
2022-11-17T12:11:34.398Z,18.10
2022-11-17T12:14:25.129Z,18.00
2022-11-17T12:17:23.646Z,17.70
2022-11-17T12:20:50.033Z,18.00
2022-11-17T12:24:13.477Z,18.10
2022-11-17T12:27:44.604Z,18.20
2022-11-17T12:30:36.845Z,18.20
2022-11-17T12:33:44.813Z,18.20
2022-11-17T12:36:35.075Z,18.30
2022-11-17T12:40:08.919Z,18.10
2022-11-17T12:43:15.308Z,18.10
2022-11-17T12:46:26.524Z,18.20
2022-11-17T12:49:35.826Z,18.30
2022-11-17T12:53:15.508Z,18.30
2022-11-17T12:56:20.201Z,18.10
2022-11-17T12:59:38.593Z,18.20
2022-11-17T13:03:15.112Z,17.90
2022-11-17T13:09:27.883Z,17.80
2022-11-17T13:12:28.432Z,17.30
2022-11-17T13:15:24.151Z,17.70
2022-11-17T13:18:30.488Z,17.80
2022-11-17T13:21:30.725Z,18.00
2022-11-17T13:24:38.815Z,18.00
2022-11-17T13:27:31.859Z,17.80
2022-11-17T13:30:28.298Z,17.60
2022-11-17T13:33:23.771Z,17.60
2022-11-17T13:36:20.748Z,17.20
2022-11-17T13:39:22.882Z,17.20
2022-11-17T13:42:13.593Z,17.40
2022-11-17T13:45:05.136Z,17.10
2022-11-17T13:47:54.478Z,17.40
2022-11-17T13:50:51.026Z,17.10
2022-11-17T13:53:56.990Z,17.00
2022-11-17T13:56:47.148Z,17.50
2022-11-17T13:59:38.757Z,17.30
2022-11-17T14:02:29.639Z,17.80
2022-11-17T14:05:35.556Z,17.90
2022-11-17T14:08:29.524Z,17.90
2022-11-17T14:11:22.190Z,17.70
2022-11-17T14:14:15.428Z,17.90
2022-11-17T14:17:20.820Z,17.90
2022-11-17T14:20:29.793Z,18.00
2022-11-17T14:23:18.847Z,17.70
2022-11-17T14:26:18.578Z,17.80
2022-11-17T14:29:06.883Z,17.90
2022-11-17T14:31:55.567Z,17.40
2022-11-17T14:34:43.063Z,17.60
2022-11-17T14:37:32.743Z,17.40
2022-11-17T14:40:20.437Z,17.50
2022-11-17T14:43:07.943Z,17.60
2022-11-17T14:45:55.478Z,17.40
2022-11-17T14:48:43.152Z,17.40
2022-11-17T14:51:31.716Z,17.30
2022-11-17T14:54:19.223Z,17.30
2022-11-17T14:57:06.703Z,17.20
2022-11-17T14:59:54.336Z,17.20
2022-11-17T15:02:42.087Z,17.40
2022-11-17T15:05:29.699Z,17.30
2022-11-17T15:08:17.251Z,17.20
2022-11-17T15:11:06.499Z,17.20
2022-11-17T15:13:54.014Z,17.10
2022-11-17T15:16:41.634Z,17.10
2022-11-17T15:19:29.123Z,17.30
2022-11-17T15:22:16.833Z,17.20
2022-11-17T15:25:04.972Z,17.20
2022-11-17T15:27:54.235Z,17.10
2022-11-17T15:30:41.973Z,17.10
2022-11-17T15:33:29.479Z,17.00
2022-11-17T15:36:20.204Z,17.00
2022-11-17T15:39:09.049Z,17.00
2022-11-17T15:41:57.072Z,16.90
2022-11-17T15:44:44.838Z,17.00
2022-11-17T15:47:32.759Z,17.10
2022-11-17T15:50:20.433Z,16.90
2022-11-17T15:53:07.861Z,16.70
2022-11-17T15:55:55.479Z,16.50
2022-11-17T15:58:45.087Z,16.30
2022-11-17T16:01:38.433Z,16.60
2022-11-17T16:04:26.032Z,16.70
2022-11-17T16:07:13.749Z,16.50
2022-11-17T16:10:01.394Z,16.60
2022-11-17T16:12:49.735Z,16.60
2022-11-17T16:15:37.220Z,16.60
2022-11-17T16:18:25.345Z,16.60
2022-11-17T16:21:14.867Z,16.50
2022-11-17T16:24:03.455Z,16.50
2022-11-17T16:26:51.435Z,16.30
2022-11-17T16:29:38.887Z,16.20
2022-11-17T16:32:26.594Z,15.80
2022-11-17T16:35:14.303Z,15.80
2022-11-17T16:38:01.783Z,16.00
2022-11-17T16:40:49.378Z,15.90
2022-11-17T16:43:44.282Z,16.20
2022-11-17T16:46:32.683Z,16.30
2022-11-17T16:49:20.934Z,16.00
2022-11-17T16:52:08.667Z,15.60
2022-11-17T16:55:00.435Z,16.10
2022-11-17T16:57:52.516Z,16.20
2022-11-17T17:00:40.589Z,16.00
2022-11-17T17:03:28.048Z,15.60
2022-11-17T17:06:18.994Z,15.90
2022-11-17T17:09:09.397Z,16.00
2022-11-17T17:11:57.130Z,16.10
2022-11-17T17:14:44.734Z,15.90
2022-11-17T17:17:32.299Z,16.10
2022-11-17T17:20:20.509Z,15.90
2022-11-17T17:23:08.120Z,15.90
2022-11-17T17:26:16.718Z,16.00
2022-11-17T17:29:07.155Z,15.90
2022-11-17T17:31:55.378Z,15.90
2022-11-17T17:34:42.994Z,15.90
2022-11-17T17:37:33.728Z,15.80
2022-11-17T17:40:21.398Z,15.80
2022-11-17T17:43:08.873Z,15.80
2022-11-17T17:46:06.044Z,15.80
2022-11-17T17:48:54.579Z,15.60
2022-11-17T17:51:44.458Z,15.60
2022-11-17T17:54:32.417Z,15.50
2022-11-17T17:57:20.035Z,15.70
2022-11-17T18:00:08.858Z,15.80
2022-11-17T18:02:56.741Z,15.50
2022-11-17T18:05:44.223Z,15.40
2022-11-17T18:08:37.075Z,15.20
2022-11-17T18:11:25.735Z,15.30
2022-11-17T18:14:14.285Z,15.20
2022-11-17T18:17:01.908Z,15.30
2022-11-17T18:19:49.418Z,15.50
2022-11-17T18:22:38.346Z,15.50
2022-11-17T18:25:26.033Z,15.60
2022-11-17T18:28:13.667Z,15.60
2022-11-17T18:31:06.636Z,15.60
2022-11-17T18:34:05.419Z,15.60
2022-11-17T18:36:58.258Z,15.40
2022-11-17T18:39:45.859Z,15.20
2022-11-17T18:42:33.818Z,15.10
2022-11-17T18:45:21.383Z,14.90
2022-11-17T18:48:08.912Z,14.90
2022-11-17T18:51:18.192Z,14.80
2022-11-17T18:54:04.808Z,14.70
2022-11-17T18:56:52.598Z,14.90
2022-11-17T18:59:40.455Z,15.00
2022-11-17T19:02:29.508Z,15.00
2022-11-17T19:05:17.182Z,15.00
2022-11-17T19:08:05.356Z,15.20
2022-11-17T19:10:54.514Z,15.20
2022-11-17T19:13:43.161Z,15.20
2022-11-17T19:16:32.271Z,15.20
2022-11-17T19:19:20.128Z,15.30
2022-11-17T19:22:07.773Z,15.20
2022-11-17T19:24:55.479Z,15.30
2022-11-17T19:27:46.218Z,15.30
2022-11-17T19:30:34.383Z,15.00
2022-11-17T19:33:22.273Z,15.20
2022-11-17T19:36:21.063Z,15.10
2022-11-17T19:39:08.567Z,15.00
2022-11-17T19:41:56.103Z,15.00
2022-11-17T19:44:43.934Z,14.80
2022-11-17T19:47:31.480Z,14.70
2022-11-17T19:50:19.533Z,14.60
2022-11-17T19:53:07.478Z,14.50
2022-11-17T19:55:57.123Z,14.40
2022-11-17T19:58:46.671Z,14.40
2022-11-17T20:01:35.058Z,14.40
2022-11-17T20:04:22.798Z,14.60
2022-11-17T20:07:11.120Z,14.60
2022-11-17T20:09:58.659Z,14.60
2022-11-17T20:12:46.819Z,14.60
2022-11-17T20:15:35.125Z,14.70
2022-11-17T20:18:22.718Z,14.90
2022-11-17T20:21:11.733Z,14.70
2022-11-17T20:23:59.929Z,14.80
2022-11-17T20:26:47.608Z,14.70
2022-11-17T20:29:35.618Z,14.80
2022-11-17T20:32:23.300Z,14.80
2022-11-17T20:35:11.554Z,14.80
2022-11-17T20:37:59.481Z,14.70
2022-11-17T20:40:47.070Z,14.20
2022-11-17T20:43:35.993Z,14.40
2022-11-17T20:46:24.786Z,14.50
2022-11-17T20:49:12.578Z,14.30
2022-11-17T20:52:00.229Z,14.30
2022-11-17T20:54:47.658Z,14.20
2022-11-17T20:57:35.772Z,14.10
2022-11-17T21:00:23.949Z,14.00
2022-11-17T21:03:11.550Z,14.10
2022-11-17T21:06:02.361Z,14.20
2022-11-17T21:08:51.158Z,14.30
2022-11-17T21:11:57.109Z,14.50
2022-11-17T21:14:44.729Z,14.30
2022-11-17T21:17:52.734Z,14.50
2022-11-17T21:20:40.285Z,14.30
2022-11-17T21:23:31.401Z,14.30
2022-11-17T21:26:19.161Z,14.20
2022-11-17T21:29:07.289Z,14.00
2022-11-17T21:31:55.159Z,13.80
2022-11-17T21:34:48.514Z,13.80
2022-11-17T21:37:37.542Z,13.60
2022-11-17T21:40:25.387Z,13.60
2022-11-17T21:43:13.021Z,13.40
2022-11-17T21:46:07.298Z,13.30
2022-11-17T21:48:57.403Z,13.30
2022-11-17T21:51:45.878Z,13.40
2022-11-17T21:54:33.633Z,13.20
2022-11-17T21:57:21.332Z,13.20
2022-11-17T22:00:09.714Z,13.20
2022-11-17T22:02:57.378Z,13.10
2022-11-17T22:05:45.259Z,13.20
2022-11-17T22:08:37.305Z,13.10
2022-11-17T22:11:38.649Z,13.10
2022-11-17T22:14:26.618Z,13.10
2022-11-17T22:17:14.194Z,13.10
2022-11-17T22:20:02.256Z,13.00
2022-11-17T22:22:54.674Z,13.20
2022-11-17T22:25:45.941Z,13.30
2022-11-17T22:28:33.868Z,13.40
2022-11-17T22:31:23.068Z,13.20
2022-11-17T22:34:11.853Z,13.50
2022-11-17T22:36:59.799Z,13.40
2022-11-17T22:39:47.773Z,13.40
2022-11-17T22:42:35.328Z,13.30
2022-11-17T22:45:22.757Z,13.20
2022-11-17T22:48:10.538Z,13.30
2022-11-17T22:50:59.675Z,13.40
2022-11-17T22:53:47.314Z,13.50
2022-11-17T22:56:35.859Z,13.50
2022-11-17T22:59:25.594Z,13.40
2022-11-17T23:02:13.389Z,13.30
2022-11-17T23:05:01.235Z,13.00
2022-11-17T23:07:49.383Z,13.20
2022-11-17T23:10:37.713Z,13.10
2022-11-17T23:13:25.699Z,13.10
2022-11-17T23:16:13.761Z,13.10
2022-11-17T23:19:01.368Z,13.20
2022-11-17T23:21:49.058Z,13.40
2022-11-17T23:24:36.744Z,13.60
2022-11-17T23:27:24.753Z,13.60
2022-11-17T23:30:13.075Z,13.20
2022-11-17T23:33:00.823Z,13.50
2022-11-17T23:35:48.264Z,13.60
2022-11-17T23:38:36.195Z,13.50
2022-11-17T23:41:23.939Z,13.10
2022-11-17T23:44:13.853Z,13.40
2022-11-17T23:47:01.732Z,13.80
2022-11-17T23:49:49.258Z,13.70
2022-11-17T23:52:37.392Z,13.90
2022-11-17T23:55:24.998Z,14.10
2022-11-17T23:58:12.603Z,14.30
